sensor_id;sensor_type;location;lat;lon;timestamp;temperature;humidity
27793;DHT22;15174;48.190;11.462;2024-02-26T00:35:57;1.20;99.90
27793;DHT22;15174;48.190;11.462;2024-02-26T00:38:23;1.20;99.90
27793;DHT22;15174;48.190;11.462;2024-02-26T00:40:49;1.30;99.90
27793;DHT22;15174;48.190;11.462;2024-02-26T00:43:15;1.30;99.90
27793;DHT22;15174;48.190;11.462;2024-02-26T00:45:41;1.30;99.90
27793;DHT22;15174;48.190;11.462;2024-02-26T00:48:06;1.30;99.90
27793;DHT22;15174;48.190;11.462;2024-02-26T00:50:33;1.30;99.90
27793;DHT22;15174;48.190;11.462;2024-02-26T00:53:00;1.30;99.90
27793;DHT22;15174;48.190;11.462;2024-02-26T00:55:25;1.20;99.90
27793;DHT22;15174;48.190;11.462;2024-02-26T00:57:51;1.20;99.90
27793;DHT22;15174;48.190;11.462;2024-02-26T01:00:17;1.10;99.90
27793;DHT22;15174;48.190;11.462;2024-02-26T01:02:43;1.10;99.90
27793;DHT22;15174;48.190;11.462;2024-02-26T01:05:09;1.00;99.90
27793;DHT22;15174;48.190;11.462;2024-02-26T01:10:05;0.80;99.90
27793;DHT22;15174;48.190;11.462;2024-02-26T01:12:34;0.70;99.90
27793;DHT22;15174;48.190;11.462;2024-02-26T01:15:01;0.70;99.90
27793;DHT22;15174;48.190;11.462;2024-02-26T01:17:26;0.80;99.90
27793;DHT22;15174;48.190;11.462;2024-02-26T01:19:52;0.80;99.90
27793;DHT22;15174;48.190;11.462;2024-02-26T01:22:19;0.80;99.90
27793;DHT22;15174;48.190;11.462;2024-02-26T01:24:46;0.80;99.90
27793;DHT22;15174;48.190;11.462;2024-02-26T01:27:12;0.90;99.90
27793;DHT22;15174;48.190;11.462;2024-02-26T01:29:39;1.00;99.90
27793;DHT22;15174;48.190;11.462;2024-02-26T01:32:05;1.00;99.90
27793;DHT22;15174;48.190;11.462;2024-02-26T01:34:31;0.90;99.90
27793;DHT22;15174;48.190;11.462;2024-02-26T01:36:57;0.90;99.90
27793;DHT22;15174;48.190;11.462;2024-02-26T01:39:23;0.80;99.90
27793;DHT22;15174;48.190;11.462;2024-02-26T01:41:48;0.80;99.90
27793;DHT22;15174;48.190;11.462;2024-02-26T01:44:14;0.80;99.90
27793;DHT22;15174;48.190;11.462;2024-02-26T01:46:39;0.90;99.90
27793;DHT22;15174;48.190;11.462;2024-02-26T01:49:06;0.80;99.90
27793;DHT22;15174;48.190;11.462;2024-02-26T01:51:33;0.90;99.90
27793;DHT22;15174;48.190;11.462;2024-02-26T01:54:00;0.90;99.90
27793;DHT22;15174;48.190;11.462;2024-02-26T01:56:28;1.00;99.90
27793;DHT22;15174;48.190;11.462;2024-02-26T01:58:57;1.10;99.90
27793;DHT22;15174;48.190;11.462;2024-02-26T02:01:25;1.00;99.90
27793;DHT22;15174;48.190;11.462;2024-02-26T02:03:54;1.00;99.90
27793;DHT22;15174;48.190;11.462;2024-02-26T02:06:20;0.90;99.90
27793;DHT22;15174;48.190;11.462;2024-02-26T02:08:46;1.00;99.90
27793;DHT22;15174;48.190;11.462;2024-02-26T02:11:12;1.10;99.90
27793;DHT22;15174;48.190;11.462;2024-02-26T02:13:38;1.10;99.90
27793;DHT22;15174;48.190;11.462;2024-02-26T02:16:04;1.10;99.90
27793;DHT22;15174;48.190;11.462;2024-02-26T02:18:30;1.10;99.90
27793;DHT22;15174;48.190;11.462;2024-02-26T02:20:55;1.10;99.90
27793;DHT22;15174;48.190;11.462;2024-02-26T02:23:24;1.10;99.90
27793;DHT22;15174;48.190;11.462;2024-02-26T02:25:51;1.10;99.90
27793;DHT22;15174;48.190;11.462;2024-02-26T02:28:17;1.20;99.90
27793;DHT22;15174;48.190;11.462;2024-02-26T02:30:42;1.30;99.90
27793;DHT22;15174;48.190;11.462;2024-02-26T02:33:09;1.30;99.90
27793;DHT22;15174;48.190;11.462;2024-02-26T02:35:34;1.30;99.90
27793;DHT22;15174;48.190;11.462;2024-02-26T02:38:00;1.20;99.90
27793;DHT22;15174;48.190;11.462;2024-02-26T02:40:26;1.20;99.90
27793;DHT22;15174;48.190;11.462;2024-02-26T02:42:51;1.20;99.90
27793;DHT22;15174;48.190;11.462;2024-02-26T02:45:17;1.20;99.90
27793;DHT22;15174;48.190;11.462;2024-02-26T02:47:42;1.20;99.90
27793;DHT22;15174;48.190;11.462;2024-02-26T02:50:08;1.20;99.90
27793;DHT22;15174;48.190;11.462;2024-02-26T02:52:34;1.20;99.90
27793;DHT22;15174;48.190;11.462;2024-02-26T02:55:00;1.20;99.90
27793;DHT22;15174;48.190;11.462;2024-02-26T02:57:26;1.20;99.90
27793;DHT22;15174;48.190;11.462;2024-02-26T02:59:51;1.20;99.90
27793;DHT22;15174;48.190;11.462;2024-02-26T03:02:17;1.20;99.90
27793;DHT22;15174;48.190;11.462;2024-02-26T03:04:43;1.10;99.90
27793;DHT22;15174;48.190;11.462;2024-02-26T03:07:08;1.10;99.90
27793;DHT22;15174;48.190;11.462;2024-02-26T03:09:34;1.40;99.90
27793;DHT22;15174;48.190;11.462;2024-02-26T03:11:59;1.60;99.90
27793;DHT22;15174;48.190;11.462;2024-02-26T03:14:26;1.60;99.90
27793;DHT22;15174;48.190;11.462;2024-02-26T03:16:55;1.60;99.90
27793;DHT22;15174;48.190;11.462;2024-02-26T03:19:20;1.70;99.90
27793;DHT22;15174;48.190;11.462;2024-02-26T03:21:46;1.70;99.90
27793;DHT22;15174;48.190;11.462;2024-02-26T03:24:12;1.70;99.90
27793;DHT22;15174;48.190;11.462;2024-02-26T03:26:38;1.70;99.90
27793;DHT22;15174;48.190;11.462;2024-02-26T03:29:04;1.70;99.90
27793;DHT22;15174;48.190;11.462;2024-02-26T03:31:29;1.80;99.90
27793;DHT22;15174;48.190;11.462;2024-02-26T03:33:55;1.70;99.90
27793;DHT22;15174;48.190;11.462;2024-02-26T03:36:21;1.70;99.90
27793;DHT22;15174;48.190;11.462;2024-02-26T03:38:47;1.90;99.90
27793;DHT22;15174;48.190;11.462;2024-02-26T03:41:13;1.90;99.90
27793;DHT22;15174;48.190;11.462;2024-02-26T03:43:39;1.80;99.90
27793;DHT22;15174;48.190;11.462;2024-02-26T03:46:09;1.90;99.90
27793;DHT22;15174;48.190;11.462;2024-02-26T03:48:37;1.90;99.90
27793;DHT22;15174;48.190;11.462;2024-02-26T03:51:03;1.90;99.90
27793;DHT22;15174;48.190;11.462;2024-02-26T03:53:29;1.90;99.90
27793;DHT22;15174;48.190;11.462;2024-02-26T03:55:54;2.00;99.90
27793;DHT22;15174;48.190;11.462;2024-02-26T03:58:21;2.10;99.90
27793;DHT22;15174;48.190;11.462;2024-02-26T04:00:47;2.20;99.90
27793;DHT22;15174;48.190;11.462;2024-02-26T04:05:39;2.30;99.90
27793;DHT22;15174;48.190;11.462;2024-02-26T04:08:05;2.40;99.90
27793;DHT22;15174;48.190;11.462;2024-02-26T04:10:33;2.50;99.90
27793;DHT22;15174;48.190;11.462;2024-02-26T04:13:00;2.50;99.90
27793;DHT22;15174;48.190;11.462;2024-02-26T04:15:26;2.50;99.90
27793;DHT22;15174;48.190;11.462;2024-02-26T04:17:51;2.50;99.90
27793;DHT22;15174;48.190;11.462;2024-02-26T04:20:17;2.50;99.90
27793;DHT22;15174;48.190;11.462;2024-02-26T04:22:44;2.50;99.90
27793;DHT22;15174;48.190;11.462;2024-02-26T04:25:09;2.40;99.90
27793;DHT22;15174;48.190;11.462;2024-02-26T04:27:35;2.20;99.90
27793;DHT22;15174;48.190;11.462;2024-02-26T04:30:01;2.00;99.90
27793;DHT22;15174;48.190;11.462;2024-02-26T04:32:27;1.90;99.90
27793;DHT22;15174;48.190;11.462;2024-02-26T04:34:53;1.90;99.90
27793;DHT22;15174;48.190;11.462;2024-02-26T04:37:19;1.80;99.90
27793;DHT22;15174;48.190;11.462;2024-02-26T04:39:45;1.90;99.90
27793;DHT22;15174;48.190;11.462;2024-02-26T04:42:11;1.90;99.90
27793;DHT22;15174;48.190;11.462;2024-02-26T04:44:36;1.80;99.90
27793;DHT22;15174;48.190;11.462;2024-02-26T04:47:02;1.80;99.90
27793;DHT22;15174;48.190;11.462;2024-02-26T04:49:28;1.80;99.90
27793;DHT22;15174;48.190;11.462;2024-02-26T04:51:54;1.70;99.90
27793;DHT22;15174;48.190;11.462;2024-02-26T04:54:21;1.50;99.90
27793;DHT22;15174;48.190;11.462;2024-02-26T04:56:47;1.40;99.90
27793;DHT22;15174;48.190;11.462;2024-02-26T04:59:13;1.40;99.90
27793;DHT22;15174;48.190;11.462;2024-02-26T05:01:39;1.50;99.90
27793;DHT22;15174;48.190;11.462;2024-02-26T05:04:05;1.50;99.90
27793;DHT22;15174;48.190;11.462;2024-02-26T05:06:31;1.60;99.90
27793;DHT22;15174;48.190;11.462;2024-02-26T05:08:56;1.70;99.90
27793;DHT22;15174;48.190;11.462;2024-02-26T05:11:23;1.80;99.90
27793;DHT22;15174;48.190;11.462;2024-02-26T05:13:49;1.70;99.90
27793;DHT22;15174;48.190;11.462;2024-02-26T05:16:14;1.60;99.90
27793;DHT22;15174;48.190;11.462;2024-02-26T05:18:40;1.60;99.90
27793;DHT22;15174;48.190;11.462;2024-02-26T05:21:11;1.60;99.90
27793;DHT22;15174;48.190;11.462;2024-02-26T05:23:37;1.80;99.90
27793;DHT22;15174;48.190;11.462;2024-02-26T05:26:03;1.90;99.90
27793;DHT22;15174;48.190;11.462;2024-02-26T05:28:29;1.80;99.90
27793;DHT22;15174;48.190;11.462;2024-02-26T05:30:54;1.70;99.90
27793;DHT22;15174;48.190;11.462;2024-02-26T05:33:20;1.60;99.90
27793;DHT22;15174;48.190;11.462;2024-02-26T05:35:46;1.70;99.90
27793;DHT22;15174;48.190;11.462;2024-02-26T05:38:12;1.70;99.90
27793;DHT22;15174;48.190;11.462;2024-02-26T05:40:37;1.80;99.90
27793;DHT22;15174;48.190;11.462;2024-02-26T05:43:04;1.70;99.90
27793;DHT22;15174;48.190;11.462;2024-02-26T05:45:29;1.70;99.90
27793;DHT22;15174;48.190;11.462;2024-02-26T05:47:55;1.70;99.90
27793;DHT22;15174;48.190;11.462;2024-02-26T05:50:21;1.70;99.90
27793;DHT22;15174;48.190;11.462;2024-02-26T05:52:46;1.80;99.90
27793;DHT22;15174;48.190;11.462;2024-02-26T05:55:12;2.00;99.90
27793;DHT22;15174;48.190;11.462;2024-02-26T05:57:39;2.20;99.90
27793;DHT22;15174;48.190;11.462;2024-02-26T06:00:05;2.20;99.90
27793;DHT22;15174;48.190;11.462;2024-02-26T06:02:40;2.30;99.90
27793;DHT22;15174;48.190;11.462;2024-02-26T06:05:06;2.50;99.90
27793;DHT22;15174;48.190;11.462;2024-02-26T06:07:34;2.50;99.90
27793;DHT22;15174;48.190;11.462;2024-02-26T06:10:00;2.60;99.90
27793;DHT22;15174;48.190;11.462;2024-02-26T06:12:26;2.70;99.90
27793;DHT22;15174;48.190;11.462;2024-02-26T06:14:54;2.80;99.90
27793;DHT22;15174;48.190;11.462;2024-02-26T06:17:19;2.80;99.90
27793;DHT22;15174;48.190;11.462;2024-02-26T06:19:45;2.80;99.90
27793;DHT22;15174;48.190;11.462;2024-02-26T06:22:11;2.80;99.90
27793;DHT22;15174;48.190;11.462;2024-02-26T06:24:37;2.90;99.90
27793;DHT22;15174;48.190;11.462;2024-02-26T06:27:03;2.90;99.90
27793;DHT22;15174;48.190;11.462;2024-02-26T06:29:28;2.90;99.90
27793;DHT22;15174;48.190;11.462;2024-02-26T06:31:54;3.10;99.90
27793;DHT22;15174;48.190;11.462;2024-02-26T06:34:21;3.10;99.90
27793;DHT22;15174;48.190;11.462;2024-02-26T06:36:46;3.10;99.90
27793;DHT22;15174;48.190;11.462;2024-02-26T06:39:12;3.00;99.90
27793;DHT22;15174;48.190;11.462;2024-02-26T06:41:38;3.10;99.90
27793;DHT22;15174;48.190;11.462;2024-02-26T06:44:05;3.20;99.90
27793;DHT22;15174;48.190;11.462;2024-02-26T06:46:31;3.30;99.90
27793;DHT22;15174;48.190;11.462;2024-02-26T06:48:56;3.50;99.90
27793;DHT22;15174;48.190;11.462;2024-02-26T06:56:15;3.80;99.90
27793;DHT22;15174;48.190;11.462;2024-02-26T06:58:41;3.70;99.90
27793;DHT22;15174;48.190;11.462;2024-02-26T07:01:06;3.70;99.90
27793;DHT22;15174;48.190;11.462;2024-02-26T07:03:34;3.80;99.90
27793;DHT22;15174;48.190;11.462;2024-02-26T07:06:00;3.90;99.90
27793;DHT22;15174;48.190;11.462;2024-02-26T07:08:25;3.90;99.90
27793;DHT22;15174;48.190;11.462;2024-02-26T07:10:51;4.00;99.90
27793;DHT22;15174;48.190;11.462;2024-02-26T07:13:17;4.00;99.90
27793;DHT22;15174;48.190;11.462;2024-02-26T07:15:43;4.00;99.90
27793;DHT22;15174;48.190;11.462;2024-02-26T07:30:20;5.20;99.90
27793;DHT22;15174;48.190;11.462;2024-02-26T07:32:46;5.30;99.90
27793;DHT22;15174;48.190;11.462;2024-02-26T07:35:11;5.80;99.90
27793;DHT22;15174;48.190;11.462;2024-02-26T07:40:04;6.90;99.90
27793;DHT22;15174;48.190;11.462;2024-02-26T07:42:29;6.90;99.90
27793;DHT22;15174;48.190;11.462;2024-02-26T07:44:55;7.20;99.90
27793;DHT22;15174;48.190;11.462;2024-02-26T07:47:21;7.20;99.90
27793;DHT22;15174;48.190;11.462;2024-02-26T07:49:47;7.00;99.90
27793;DHT22;15174;48.190;11.462;2024-02-26T07:52:12;6.70;99.90
27793;DHT22;15174;48.190;11.462;2024-02-26T07:54:38;6.50;99.90
27793;DHT22;15174;48.190;11.462;2024-02-26T07:57:04;6.30;99.90
27793;DHT22;15174;48.190;11.462;2024-02-26T07:59:31;6.00;99.90
27793;DHT22;15174;48.190;11.462;2024-02-26T08:01:57;5.80;99.90
27793;DHT22;15174;48.190;11.462;2024-02-26T08:04:22;5.60;99.90
27793;DHT22;15174;48.190;11.462;2024-02-26T08:06:48;5.50;99.90
27793;DHT22;15174;48.190;11.462;2024-02-26T08:09:14;5.50;99.90
27793;DHT22;15174;48.190;11.462;2024-02-26T08:11:41;5.60;99.90
27793;DHT22;15174;48.190;11.462;2024-02-26T08:14:07;5.90;99.90
27793;DHT22;15174;48.190;11.462;2024-02-26T08:16:32;6.20;99.90
27793;DHT22;15174;48.190;11.462;2024-02-26T08:18:58;6.40;99.90
27793;DHT22;15174;48.190;11.462;2024-02-26T08:21:41;6.60;99.90
27793;DHT22;15174;48.190;11.462;2024-02-26T08:27:52;7.10;99.90
27793;DHT22;15174;48.190;11.462;2024-02-26T08:30:18;7.40;99.90
27793;DHT22;15174;48.190;11.462;2024-02-26T08:32:45;7.70;99.90
27793;DHT22;15174;48.190;11.462;2024-02-26T08:37:37;8.10;99.90
27793;DHT22;15174;48.190;11.462;2024-02-26T08:40:03;8.10;99.90
27793;DHT22;15174;48.190;11.462;2024-02-26T08:42:29;8.20;99.90
27793;DHT22;15174;48.190;11.462;2024-02-26T08:44:55;8.20;99.90
27793;DHT22;15174;48.190;11.462;2024-02-26T08:47:21;8.10;99.90
27793;DHT22;15174;48.190;11.462;2024-02-26T08:49:46;8.20;99.90
27793;DHT22;15174;48.190;11.462;2024-02-26T08:52:12;8.20;99.90
27793;DHT22;15174;48.190;11.462;2024-02-26T08:54:39;8.20;99.90
27793;DHT22;15174;48.190;11.462;2024-02-26T08:57:06;8.20;99.90
27793;DHT22;15174;48.190;11.462;2024-02-26T08:59:31;8.10;99.90
27793;DHT22;15174;48.190;11.462;2024-02-26T09:01:57;8.00;99.90
27793;DHT22;15174;48.190;11.462;2024-02-26T09:04:22;7.90;99.90
27793;DHT22;15174;48.190;11.462;2024-02-26T09:06:48;7.90;99.90
27793;DHT22;15174;48.190;11.462;2024-02-26T09:09:14;7.90;99.90
27793;DHT22;15174;48.190;11.462;2024-02-26T09:11:40;7.90;99.90
27793;DHT22;15174;48.190;11.462;2024-02-26T09:14:05;8.00;99.90
27793;DHT22;15174;48.190;11.462;2024-02-26T09:16:31;8.00;99.90
27793;DHT22;15174;48.190;11.462;2024-02-26T09:18:57;8.10;99.90
27793;DHT22;15174;48.190;11.462;2024-02-26T09:21:23;8.20;99.90
27793;DHT22;15174;48.190;11.462;2024-02-26T09:26:16;8.70;99.90
27793;DHT22;15174;48.190;11.462;2024-02-26T09:28:42;8.90;99.90
27793;DHT22;15174;48.190;11.462;2024-02-26T09:31:08;9.10;99.90
27793;DHT22;15174;48.190;11.462;2024-02-26T09:33:34;9.60;99.90
